Rafael Nuñez International Airport
SKCG : now visible

Aeroporto :











RITROVATECI SU...

 
LOGIN :

Iscrizione | Disclaimer

   EN    FR    IT 

 









Sommario :    VFR   VFR Marginale   IFR   IFR Intensivo   IFR Molto Intensivo
Visibilità : 
Base nubi : 
>= 8 km
>= 3000ft
5 / 8 km
1000 / 3000 ft
1500m / 5 km
500 / 1000 ft
800 / 1500m
200 / 500 ft
< 800m
< 200 ft
Simboli :   Temporali  Nebbia  Neve Forte  Precipitazioni Forti  Vento > 20 kt






- Altitudine del aeroporto : 4 ft
- Codice IATA : CTG


SKCG - Rafael Nuñez International

ULTIMO METAR :
  • 040300Z 02011KT 330V060 9999 FEW020 27/24 A2979

METARs OBSOLETI :
  • 040200Z 02011KT 330V060 9999 FEW020 27/24 A2979
  • 040100Z 02012KT 350V050 9999 FEW018 27/24 A2979

TAF TAF SKCG
Valido dal 04 a 00 ore il 05 a 00 ore UTC


032230Z 0400/0424 04008KT 9999 FEW018 SCT080
BECMG 0416/0418 36016KT TX31/0419Z TN26/0410Z



MetMap, La meteo Aeronautica in un colpo d'occhio ! - Copyright ORBIFLY Dicembre 2007 - Disclaimer

ORBIFLY MET'MAP TEAM :

Programmazione e sviluppo : Alexandra Zaïnal
Concezione : Baudouin d'Aumeries
Aiuto per la programmazione : Marc-Olivier Méhu
Supporto tecnico e logistico : Manuel Goepfert
Aiuto per la traduzione : Arnaldo La Scala

Contatto : metmap@orbifly.com




FONTI E CREDITI :

   NOAA       Earth
Advisory